Adams, Minnesota
Current Conditions -  °F | °C
As of 10:56 AM on Saturday 22 Nov 2014 (Local Time) from KAUM Reporting Station
Moderate Fog Moderate Fog  
Wind Chill: -2°   Ceiling: 100
Heat Index:   Visibility: 0.25mi
Dew Point:   Wind: 9mph
Humidity: 93%   Direction: 180°S
Pressure: 29.76"   Gusts: NA
Location:  43.57°N, 92.72°W
Report Text: KAUM 221656Z AUTO 18008KT 1/4SM FG OVC001 02/01 A2976 RMK AO2
Loading
Personal Weather Stations






























Interactive Weather Map New forecast layout! Learn more

10-Day Weather Forecast

Advertisements
Track Severe Weather on mobile